Terminal Aerodrome Forecast
Issued by NWS

Home | Current Version | Previous Version | Text Only | Print | Product List | Glossary On
Versions: 1 2 3 4 5 6 7 8 9 10 11 12 13 14 15 16 17 18 19 20
350
FTUS43 KMQT 251326 AAA
TAFIWD
TAF AMD
KIWD 251326Z 2513/2612 16010G20KT P6SM VCSH SCT015 OVC100
     FM251500 17013G21KT P6SM -SHRA SCT008 OVC015
     FM251900 18010KT P6SM -SHRA OVC010
     FM252200 21008KT P6SM VCSH OVC020
     FM260600 26010KT P6SM OVC015
     FM260900 25010KT P6SM -SHRA OVC008
     FM261100 26011G21KT P6SM -SHRA OVC003=

USA.gov is the U.S. government's official web portal to all federal, state and local government web resources and services.